createdAt,value
2019-05-13T00:00:48.934Z,1.63
2019-05-13T00:03:17.676Z,1.60
2019-05-13T00:05:48.002Z,1.60
2019-05-13T00:08:24.804Z,1.40
2019-05-13T00:10:58.298Z,1.20
2019-05-13T00:13:41.453Z,1.40
2019-05-13T00:16:14.146Z,1.60
2019-05-13T00:18:47.077Z,1.50
2019-05-13T00:21:17.141Z,1.70
2019-05-13T00:24:00.515Z,1.60
2019-05-13T00:26:28.939Z,1.60
2019-05-13T00:28:59.010Z,2.90
2019-05-13T00:31:29.292Z,2.27
2019-05-13T00:34:00.494Z,1.50
2019-05-13T00:36:30.558Z,1.57
2019-05-13T00:39:04.462Z,1.97
2019-05-13T00:41:33.927Z,1.83
2019-05-13T00:44:03.827Z,1.50
2019-05-13T00:46:35.385Z,1.53
2019-05-13T00:49:04.726Z,1.57
2019-05-13T00:51:33.812Z,1.50
2019-05-13T00:54:05.134Z,1.40
2019-05-13T00:56:38.077Z,1.87
2019-05-13T00:59:09.199Z,1.83
2019-05-13T01:01:44.097Z,1.60
2019-05-13T01:04:11.595Z,1.47
2019-05-13T01:06:40.025Z,1.80
2019-05-13T01:09:11.407Z,1.60
2019-05-13T01:11:43.743Z,1.70
2019-05-13T01:14:14.299Z,2.00
2019-05-13T01:16:44.505Z,1.80
2019-05-13T01:19:14.697Z,1.60
2019-05-13T01:21:47.402Z,1.80
2019-05-13T01:24:17.126Z,1.80
2019-05-13T01:26:47.167Z,2.20
2019-05-13T01:29:15.587Z,1.77
2019-05-13T01:31:44.399Z,1.87
2019-05-13T01:34:23.523Z,2.63
2019-05-13T01:36:56.530Z,1.80
2019-05-13T01:39:24.950Z,1.77
2019-05-13T01:41:56.233Z,2.03
2019-05-13T01:44:29.197Z,1.87
2019-05-13T01:47:00.468Z,1.97
2019-05-13T01:49:33.827Z,1.80
2019-05-13T01:52:05.292Z,2.00
2019-05-13T01:54:34.093Z,2.00
2019-05-13T01:57:07.462Z,2.17
2019-05-13T01:59:35.916Z,1.80
2019-05-13T02:02:06.219Z,2.17
2019-05-13T02:04:34.632Z,1.60
2019-05-13T02:07:06.118Z,1.60
2019-05-13T02:09:37.446Z,1.70
2019-05-13T02:12:13.435Z,1.60
2019-05-13T02:14:44.268Z,1.80
2019-05-13T02:17:14.861Z,2.03
2019-05-13T02:19:44.923Z,2.10
2019-05-13T02:22:14.985Z,1.87
2019-05-13T02:24:53.789Z,2.20
2019-05-13T02:27:35.590Z,2.00
2019-05-13T02:30:07.760Z,2.10
2019-05-13T02:32:36.259Z,2.10
2019-05-13T02:35:07.647Z,2.10
2019-05-13T02:37:42.505Z,2.27
2019-05-13T02:40:09.181Z,2.43
2019-05-13T02:42:43.240Z,2.40
2019-05-13T02:45:13.032Z,2.33
2019-05-13T02:47:44.339Z,2.40
2019-05-13T02:50:17.931Z,2.17
2019-05-13T02:52:49.137Z,2.10
2019-05-13T02:55:22.318Z,2.20
2019-05-13T02:57:52.874Z,2.43
2019-05-13T03:00:27.178Z,2.30
2019-05-13T03:02:55.597Z,2.67
2019-05-13T03:05:28.399Z,2.47
2019-05-13T03:08:04.250Z,3.10
2019-05-13T03:10:37.244Z,2.20
2019-05-13T03:13:03.768Z,3.47
2019-05-13T03:15:42.830Z,2.43
2019-05-13T03:18:13.286Z,2.50
2019-05-13T03:20:52.896Z,2.47
2019-05-13T03:23:34.836Z,2.40
2019-05-13T03:26:03.407Z,3.07
2019-05-13T03:28:43.137Z,2.40
2019-05-13T03:31:15.958Z,3.00
2019-05-13T03:33:46.227Z,3.43
2019-05-13T03:36:17.352Z,2.57
2019-05-13T03:39:01.495Z,2.27
2019-05-13T03:41:22.599Z,3.67
2019-05-13T03:44:05.580Z,4.67
2019-05-13T03:46:42.322Z,2.40
2019-05-13T03:49:14.136Z,2.40
2019-05-13T03:51:43.050Z,3.23
2019-05-13T03:54:17.698Z,3.40
2019-05-13T03:56:53.844Z,3.20
2019-05-13T03:59:25.390Z,3.17
2019-05-13T04:01:53.801Z,3.80
2019-05-13T04:04:23.566Z,3.53
2019-05-13T04:07:04.429Z,3.17
2019-05-13T04:09:36.519Z,2.83
2019-05-13T04:12:05.878Z,2.53
2019-05-13T04:14:34.304Z,2.57
2019-05-13T04:17:03.274Z,3.03
2019-05-13T04:19:36.554Z,3.10
2019-05-13T04:22:07.941Z,2.63
2019-05-13T04:24:36.711Z,2.60
2019-05-13T04:27:06.751Z,2.80
2019-05-13T04:29:39.480Z,2.40
2019-05-13T04:32:17.000Z,2.57
2019-05-13T04:34:45.983Z,2.17
2019-05-13T04:37:17.056Z,1.90
2019-05-13T04:39:52.684Z,2.60
2019-05-13T04:42:23.283Z,2.33
2019-05-13T04:44:53.277Z,2.30
2019-05-13T04:47:22.941Z,1.87
2019-05-13T04:49:54.307Z,2.30
2019-05-13T04:52:22.795Z,2.50
2019-05-13T04:54:56.861Z,2.10
2019-05-13T04:57:28.530Z,1.90
2019-05-13T05:00:05.520Z,1.90
2019-05-13T05:03:03.487Z,1.73
2019-05-13T05:05:42.088Z,2.20
2019-05-13T05:08:36.563Z,1.97
2019-05-13T05:11:32.352Z,2.17
2019-05-13T05:14:26.835Z,2.20
2019-05-13T05:17:33.217Z,1.70
2019-05-13T05:20:13.087Z,1.90
2019-05-13T05:22:47.549Z,2.20
2019-05-13T05:25:44.638Z,1.77
2019-05-13T05:28:41.213Z,1.80
2019-05-13T05:31:28.586Z,1.80
2019-05-13T05:34:32.342Z,1.80
2019-05-13T05:37:22.307Z,2.17
2019-05-13T05:39:53.829Z,1.87
2019-05-13T05:42:24.741Z,2.30
2019-05-13T05:45:02.773Z,2.10
2019-05-13T05:47:33.236Z,2.17
2019-05-13T05:50:04.042Z,1.80
2019-05-13T05:52:36.254Z,1.57
2019-05-13T05:55:08.166Z,2.17
2019-05-13T05:57:44.549Z,1.63
2019-05-13T06:00:14.426Z,2.00
2019-05-13T06:02:48.604Z,1.90
2019-05-13T06:05:17.310Z,1.90
2019-05-13T06:07:54.627Z,1.57
2019-05-13T06:10:42.661Z,2.03
2019-05-13T06:13:04.308Z,1.77
2019-05-13T06:15:33.460Z,1.53
2019-05-13T06:18:03.694Z,1.80
2019-05-13T06:20:44.213Z,2.10
2019-05-13T06:23:22.263Z,2.00
2019-05-13T06:25:52.730Z,2.00
2019-05-13T06:28:23.576Z,1.80
2019-05-13T06:30:54.693Z,1.97
2019-05-13T06:33:23.189Z,2.17
2019-05-13T06:35:54.561Z,2.23
2019-05-13T06:38:25.898Z,1.77
2019-05-13T06:41:02.708Z,1.90
2019-05-13T06:43:24.466Z,2.13
2019-05-13T06:45:52.889Z,1.90
2019-05-13T06:48:24.222Z,1.93
2019-05-13T06:50:55.341Z,1.87
2019-05-13T06:53:32.467Z,2.00
2019-05-13T06:56:12.374Z,2.00
2019-05-13T06:58:42.342Z,2.00
2019-05-13T07:01:13.568Z,1.80
2019-05-13T07:03:44.701Z,2.00
2019-05-13T07:06:27.380Z,2.00
2019-05-13T07:08:54.922Z,2.30
2019-05-13T07:11:24.917Z,2.37
2019-05-13T07:13:53.565Z,2.10
2019-05-13T07:16:31.721Z,2.03
2019-05-13T07:19:04.482Z,1.70
2019-05-13T07:21:32.894Z,1.70
2019-05-13T07:24:02.321Z,1.70
2019-05-13T07:26:31.583Z,1.83
2019-05-13T07:29:03.283Z,1.80
2019-05-13T07:31:32.334Z,2.07
2019-05-13T07:34:02.252Z,1.80
2019-05-13T07:36:39.331Z,1.60
2019-05-13T07:39:12.697Z,1.80
2019-05-13T07:41:43.203Z,2.03
2019-05-13T07:44:15.572Z,2.13
2019-05-13T07:46:44.302Z,2.00
2019-05-13T07:49:18.765Z,1.80
2019-05-13T07:51:52.870Z,1.80
2019-05-13T07:54:22.186Z,1.57
2019-05-13T07:56:53.605Z,2.07
2019-05-13T07:59:22.034Z,1.60
2019-05-13T08:01:52.685Z,1.50
2019-05-13T08:04:26.728Z,2.03
2019-05-13T08:07:01.894Z,1.80
2019-05-13T08:09:31.853Z,1.90
2019-05-13T08:12:10.185Z,1.73
2019-05-13T08:14:33.109Z,1.90
2019-05-13T08:17:04.593Z,1.60
2019-05-13T08:19:35.923Z,1.93
2019-05-13T08:22:15.949Z,2.07
2019-05-13T08:24:51.936Z,1.60
2019-05-13T08:27:24.116Z,2.20
2019-05-13T08:29:54.014Z,1.83
2019-05-13T08:32:22.438Z,2.13
2019-05-13T08:35:01.732Z,1.83
2019-05-13T08:37:42.440Z,2.20
2019-05-13T08:40:23.529Z,1.70
2019-05-13T08:42:52.196Z,1.83
2019-05-13T08:45:23.451Z,1.83
2019-05-13T08:47:51.895Z,1.77
2019-05-13T08:50:24.721Z,1.93
2019-05-13T08:52:55.957Z,1.60
2019-05-13T08:55:26.328Z,1.93
2019-05-13T08:58:06.610Z,2.20
2019-05-13T09:00:58.900Z,1.80
2019-05-13T09:03:28.681Z,1.90
2019-05-13T09:06:03.271Z,1.67
2019-05-13T09:08:34.570Z,1.70
2019-05-13T09:11:08.912Z,1.60
2019-05-13T09:13:42.350Z,2.00
2019-05-13T09:16:16.557Z,2.00
2019-05-13T09:18:45.127Z,1.83
2019-05-13T09:21:13.542Z,1.93
2019-05-13T09:23:41.974Z,1.77
2019-05-13T09:26:12.185Z,1.43
2019-05-13T09:28:41.690Z,1.97
2019-05-13T09:31:13.450Z,1.57
2019-05-13T09:33:45.945Z,1.33
2019-05-13T09:36:23.218Z,1.77
2019-05-13T09:38:53.294Z,1.77
2019-05-13T09:41:24.790Z,1.70
2019-05-13T09:44:03.595Z,1.77
2019-05-13T09:46:38.002Z,1.70
2019-05-13T09:49:16.167Z,1.60
2019-05-13T09:51:41.723Z,1.67
2019-05-13T09:54:11.803Z,1.50
2019-05-13T09:56:43.674Z,1.27
2019-05-13T09:59:14.796Z,1.40
2019-05-13T10:01:46.234Z,1.30
2019-05-13T10:04:17.477Z,1.70
2019-05-13T10:06:45.889Z,1.60
2019-05-13T10:09:14.319Z,1.53
2019-05-13T10:11:42.736Z,1.30
2019-05-13T10:14:11.760Z,1.50
2019-05-13T10:16:43.322Z,1.30
2019-05-13T10:19:12.689Z,1.60
2019-05-13T10:21:44.401Z,1.70
2019-05-13T10:24:17.246Z,1.60
2019-05-13T10:26:45.725Z,1.60
2019-05-13T10:29:15.966Z,1.60
2019-05-13T10:31:44.540Z,1.70
2019-05-13T10:34:14.767Z,1.37
2019-05-13T10:36:43.189Z,1.60
2019-05-13T10:39:19.330Z,1.30
2019-05-13T10:41:52.318Z,1.53
2019-05-13T10:44:24.177Z,1.60
2019-05-13T10:46:55.308Z,1.50
2019-05-13T10:49:25.357Z,1.67
2019-05-13T10:51:53.927Z,1.50
2019-05-13T10:54:32.468Z,1.43
2019-05-13T10:57:04.351Z,1.70
2019-05-13T10:59:34.478Z,1.50
2019-05-13T11:02:02.949Z,1.90
2019-05-13T11:04:34.431Z,1.70
2019-05-13T11:07:03.309Z,1.53
2019-05-13T11:09:32.647Z,1.50
2019-05-13T11:12:07.930Z,1.20
2019-05-13T11:14:39.534Z,1.80
2019-05-13T11:17:13.098Z,1.50
2019-05-13T11:19:41.925Z,1.60
2019-05-13T11:22:17.250Z,1.60
2019-05-13T11:24:45.675Z,1.90
2019-05-13T11:27:23.293Z,1.57
2019-05-13T11:29:52.356Z,2.07
2019-05-13T11:32:27.490Z,2.00
2019-05-13T11:34:57.813Z,1.80
2019-05-13T11:37:26.241Z,1.70
2019-05-13T11:39:54.665Z,1.50
2019-05-13T11:42:32.764Z,1.80
2019-05-13T11:45:11.731Z,1.33
2019-05-13T11:47:44.731Z,1.73
2019-05-13T11:50:22.332Z,1.63
2019-05-13T11:52:54.092Z,1.50
2019-05-13T11:55:23.028Z,2.00
2019-05-13T11:57:53.107Z,1.70
2019-05-13T12:00:47.324Z,1.90
2019-05-13T12:03:23.043Z,1.77
2019-05-13T12:05:54.198Z,1.57
2019-05-13T12:08:23.122Z,1.80
2019-05-13T12:10:57.671Z,1.67
2019-05-13T12:13:32.873Z,1.77
2019-05-13T12:16:03.912Z,1.33
2019-05-13T12:18:43.399Z,1.80
2019-05-13T12:21:11.776Z,1.70
2019-05-13T12:23:42.783Z,1.57
2019-05-13T12:26:13.154Z,1.93
2019-05-13T12:28:42.240Z,1.70
2019-05-13T12:31:15.337Z,1.47
2019-05-13T12:33:44.280Z,1.60
2019-05-13T12:36:18.683Z,1.80
2019-05-13T12:38:45.577Z,1.80
2019-05-13T12:41:17.076Z,1.80
2019-05-13T12:43:45.503Z,1.60
2019-05-13T12:46:13.929Z,1.80
2019-05-13T12:48:43.285Z,1.50
2019-05-13T12:51:13.284Z,1.63
2019-05-13T12:53:43.509Z,1.53
2019-05-13T12:56:12.713Z,1.70
2019-05-13T12:58:42.867Z,1.67
2019-05-13T13:01:12.699Z,1.63
2019-05-13T13:03:41.432Z,1.50
2019-05-13T13:06:29.947Z,1.50
2019-05-13T13:08:48.576Z,1.47
2019-05-13T13:11:12.956Z,1.60
2019-05-13T13:13:58.147Z,1.50
2019-05-13T13:16:13.218Z,1.77
2019-05-13T13:18:47.230Z,1.80
2019-05-13T13:21:15.656Z,1.57
2019-05-13T13:23:44.132Z,1.70
2019-05-13T13:26:15.640Z,1.80
2019-05-13T13:28:43.584Z,1.80
2019-05-13T13:31:13.114Z,1.90
2019-05-13T13:33:44.591Z,1.77
2019-05-13T13:36:18.267Z,1.73
2019-05-13T13:38:56.088Z,1.97
2019-05-13T13:41:24.033Z,2.17
2019-05-13T13:43:58.091Z,1.80
2019-05-13T13:46:41.263Z,1.87
2019-05-13T13:49:05.910Z,1.80
2019-05-13T13:51:34.590Z,1.60
2019-05-13T13:54:03.078Z,1.80
2019-05-13T13:56:34.683Z,2.10
2019-05-13T13:59:04.853Z,1.83
2019-05-13T14:01:38.922Z,1.80
2019-05-13T14:04:15.969Z,1.90
2019-05-13T14:09:13.943Z,1.90
2019-05-13T14:11:51.573Z,1.80
2019-05-13T14:14:21.891Z,2.00
2019-05-13T14:16:51.889Z,1.80
2019-05-13T14:19:21.876Z,2.20
2019-05-13T14:21:52.621Z,2.20
2019-05-13T14:24:28.306Z,1.87
2019-05-13T14:26:58.366Z,1.93
2019-05-13T14:29:38.590Z,2.10
2019-05-13T14:32:05.577Z,1.97
2019-05-13T14:34:34.003Z,1.60
2019-05-13T14:37:05.081Z,1.80
2019-05-13T14:39:36.113Z,1.70
2019-05-13T14:42:03.663Z,2.10
2019-05-13T14:44:35.206Z,1.70
2019-05-13T14:47:07.410Z,1.73
2019-05-13T14:49:38.865Z,1.87
2019-05-13T14:52:22.333Z,1.90
2019-05-13T14:54:51.514Z,1.90
2019-05-13T14:57:21.784Z,1.80
2019-05-13T14:59:52.926Z,1.60
2019-05-13T15:02:24.010Z,1.50
2019-05-13T15:04:52.615Z,1.50
2019-05-13T15:07:22.974Z,1.63
2019-05-13T15:09:53.065Z,1.83
2019-05-13T15:12:21.759Z,1.50
2019-05-13T15:14:52.351Z,1.60
2019-05-13T15:17:21.480Z,2.00
2019-05-13T15:19:56.610Z,2.00
2019-05-13T15:22:28.281Z,1.80
2019-05-13T15:24:56.705Z,2.00
2019-05-13T15:27:26.766Z,1.70
2019-05-13T15:30:12.554Z,2.00
2019-05-13T15:32:27.997Z,1.83
2019-05-13T15:34:58.225Z,1.90
2019-05-13T15:37:32.613Z,1.70
2019-05-13T15:40:02.349Z,1.87
2019-05-13T15:42:34.224Z,2.00
2019-05-13T15:45:04.571Z,1.80
2019-05-13T15:47:34.526Z,1.80
2019-05-13T15:50:05.677Z,1.80
2019-05-13T15:52:38.883Z,1.87
2019-05-13T15:55:07.993Z,2.00
2019-05-13T15:57:44.713Z,1.87
2019-05-13T16:00:16.457Z,1.73
2019-05-13T16:02:46.821Z,2.03
2019-05-13T16:05:18.449Z,1.63
2019-05-13T16:07:52.289Z,1.70
2019-05-13T16:10:20.766Z,1.83
2019-05-13T16:12:53.546Z,2.17
2019-05-13T16:15:27.401Z,1.80
2019-05-13T16:17:58.372Z,2.27
2019-05-13T16:20:32.541Z,1.80
2019-05-13T16:23:03.053Z,1.97
2019-05-13T16:25:32.830Z,2.40
2019-05-13T16:28:01.465Z,1.80
2019-05-13T16:30:32.065Z,2.27
2019-05-13T16:33:08.384Z,2.10
2019-05-13T16:35:42.449Z,1.93
2019-05-13T16:38:13.325Z,2.10
2019-05-13T16:40:43.396Z,1.60
2019-05-13T16:43:13.040Z,2.03
2019-05-13T16:45:46.439Z,2.10
2019-05-13T16:48:17.823Z,2.50
2019-05-13T16:50:50.623Z,1.97
2019-05-13T16:53:22.398Z,1.60
2019-05-13T16:55:51.036Z,1.90
2019-05-13T16:58:24.431Z,2.10
2019-05-13T17:00:51.638Z,2.00
2019-05-13T17:03:25.098Z,2.10
2019-05-13T17:06:01.827Z,1.70
2019-05-13T17:08:32.833Z,2.00
2019-05-13T17:11:06.421Z,1.90
2019-05-13T17:13:39.166Z,1.70
2019-05-13T17:16:07.562Z,1.90
2019-05-13T17:18:38.557Z,1.60
2019-05-13T17:21:12.870Z,1.80
2019-05-13T17:23:48.637Z,1.97
2019-05-13T17:26:19.130Z,1.70
2019-05-13T17:28:51.761Z,1.70
2019-05-13T17:31:24.176Z,2.10
2019-05-13T17:33:57.183Z,1.90
2019-05-13T17:36:32.320Z,2.00
2019-05-13T17:39:02.013Z,1.93
2019-05-13T17:41:32.240Z,1.90
2019-05-13T17:44:02.443Z,1.90
2019-05-13T17:46:32.811Z,1.80
2019-05-13T17:49:06.927Z,2.23
2019-05-13T17:51:38.325Z,1.60
2019-05-13T17:54:12.463Z,1.70
2019-05-13T17:56:46.555Z,1.90
2019-05-13T17:59:16.296Z,1.80
2019-05-13T18:01:47.607Z,1.77
2019-05-13T18:04:16.033Z,1.53
2019-05-13T18:06:52.318Z,1.80
2019-05-13T18:09:23.287Z,1.60
2019-05-13T18:11:55.180Z,1.70
2019-05-13T18:14:29.287Z,1.60
2019-05-13T18:16:58.027Z,1.80
2019-05-13T18:19:26.440Z,1.97
2019-05-13T18:21:56.555Z,1.70
2019-05-13T18:24:27.987Z,1.70
2019-05-13T18:27:01.373Z,2.00
2019-05-13T18:29:34.275Z,1.60
2019-05-13T18:32:02.705Z,1.70
2019-05-13T18:34:34.038Z,1.50
2019-05-13T18:37:05.179Z,1.93
2019-05-13T18:39:35.237Z,1.80
2019-05-13T18:42:03.934Z,1.70
2019-05-13T18:44:35.167Z,1.60
2019-05-13T18:47:12.093Z,1.50
2019-05-13T18:49:42.384Z,1.53
2019-05-13T18:52:11.667Z,1.83
2019-05-13T18:54:54.119Z,1.50
2019-05-13T18:57:25.283Z,1.60
2019-05-13T18:59:53.695Z,1.60
2019-05-13T19:02:22.123Z,1.50
2019-05-13T19:04:52.345Z,2.40
2019-05-13T19:07:26.482Z,2.30
2019-05-13T19:09:54.898Z,2.73
2019-05-13T19:12:25.837Z,3.10
2019-05-13T19:14:54.484Z,3.03
2019-05-13T19:17:22.947Z,2.93
2019-05-13T19:19:51.532Z,2.30
2019-05-13T19:22:25.698Z,2.90
2019-05-13T19:24:57.080Z,2.60
2019-05-13T19:27:27.147Z,3.63
2019-05-13T19:29:58.652Z,2.57
2019-05-13T19:32:27.087Z,2.80
2019-05-13T19:35:07.221Z,3.13
2019-05-13T19:37:35.665Z,3.43
2019-05-13T19:40:07.705Z,2.93
2019-05-13T19:42:36.143Z,3.37
2019-05-13T19:45:08.454Z,3.73
2019-05-13T19:47:41.759Z,3.30
2019-05-13T19:50:13.555Z,3.70
2019-05-13T19:52:41.977Z,7.53
2019-05-13T19:55:12.226Z,8.07
2019-05-13T19:57:46.177Z,8.67
2019-05-13T20:00:15.508Z,7.53
2019-05-13T20:02:48.664Z,4.10
2019-05-13T20:05:21.151Z,4.53
2019-05-13T20:07:52.308Z,4.00
2019-05-13T20:10:25.254Z,7.73
2019-05-13T20:12:53.757Z,6.73
2019-05-13T20:15:22.238Z,7.30
2019-05-13T20:17:54.093Z,4.57
2019-05-13T20:20:27.842Z,4.53
2019-05-13T20:23:05.277Z,3.60
2019-05-13T20:25:35.877Z,3.20
2019-05-13T20:28:06.977Z,3.60
2019-05-13T20:30:41.842Z,3.90
2019-05-13T20:33:14.347Z,3.40
2019-05-13T20:35:47.160Z,3.57
2019-05-13T20:38:22.202Z,3.30
2019-05-13T20:40:58.316Z,2.40
2019-05-13T20:43:32.986Z,2.30
2019-05-13T20:46:04.363Z,2.43
2019-05-13T20:48:34.074Z,2.00
2019-05-13T20:51:08.201Z,2.00
2019-05-13T20:53:41.205Z,2.67
2019-05-13T20:56:11.456Z,3.87
2019-05-13T20:58:42.025Z,3.60
2019-05-13T21:01:12.679Z,3.60
2019-05-13T21:03:41.968Z,3.00
2019-05-13T21:06:19.573Z,3.20
2019-05-13T21:08:52.198Z,2.80
2019-05-13T21:11:20.829Z,2.70
2019-05-13T21:13:52.355Z,3.00
2019-05-13T21:16:21.880Z,2.90
2019-05-13T21:18:54.301Z,3.63
2019-05-13T21:21:22.713Z,3.40
2019-05-13T21:23:52.226Z,2.70
2019-05-13T21:26:23.374Z,2.83
2019-05-13T21:28:58.165Z,2.60
2019-05-13T21:31:26.582Z,2.60
2019-05-13T21:34:01.380Z,2.50
2019-05-13T21:36:35.364Z,2.67
2019-05-13T21:39:12.582Z,2.80
2019-05-13T21:41:46.657Z,2.70
2019-05-13T21:44:18.085Z,3.27
2019-05-13T21:46:51.418Z,3.63
2019-05-13T21:49:21.369Z,2.83
2019-05-13T21:51:49.470Z,2.20
2019-05-13T21:54:21.376Z,2.20
2019-05-13T21:56:55.148Z,2.20
2019-05-13T21:59:26.238Z,2.20
2019-05-13T22:01:54.658Z,2.20
2019-05-13T22:04:23.073Z,2.00
2019-05-13T22:06:51.492Z,1.80
2019-05-13T22:09:25.459Z,1.97
2019-05-13T22:11:54.513Z,1.70
2019-05-13T22:14:25.663Z,1.90
2019-05-13T22:16:56.623Z,2.00
2019-05-13T22:19:31.546Z,1.70
2019-05-13T22:22:12.216Z,2.00
2019-05-13T22:24:41.779Z,1.83
2019-05-13T22:27:13.392Z,1.80
2019-05-13T22:29:44.305Z,2.10
2019-05-13T22:32:15.663Z,1.90
2019-05-13T22:34:45.714Z,2.03
2019-05-13T22:37:15.753Z,1.90
2019-05-13T22:39:46.822Z,1.67
2019-05-13T22:42:35.570Z,1.70
2019-05-13T22:45:07.237Z,1.50
2019-05-13T22:47:41.768Z,1.77
2019-05-13T22:50:13.526Z,1.50
2019-05-13T22:52:43.586Z,1.70
2019-05-13T22:55:12.137Z,1.70
2019-05-13T22:57:45.620Z,1.63
2019-05-13T23:00:14.219Z,1.80
2019-05-13T23:02:45.287Z,1.73
2019-05-13T23:05:22.577Z,1.80
2019-05-13T23:07:56.726Z,1.67
2019-05-13T23:10:31.814Z,1.83
2019-05-13T23:13:02.174Z,1.63
2019-05-13T23:15:36.470Z,2.20
2019-05-13T23:18:13.182Z,1.87
2019-05-13T23:20:45.013Z,1.60
2019-05-13T23:23:15.966Z,1.87
2019-05-13T23:25:44.382Z,1.70
2019-05-13T23:28:16.314Z,1.60
2019-05-13T23:30:45.617Z,1.53
2019-05-13T23:33:21.784Z,1.97
2019-05-13T23:35:49.573Z,1.77
2019-05-13T23:38:21.431Z,1.80
2019-05-13T23:40:51.550Z,1.70
2019-05-13T23:43:21.726Z,1.47
2019-05-13T23:45:51.182Z,1.80
2019-05-13T23:48:25.631Z,2.07
2019-05-13T23:50:56.935Z,1.80
2019-05-13T23:53:28.234Z,2.00
2019-05-13T23:56:02.468Z,1.87
2019-05-13T23:58:35.638Z,2.20
